sensor_id;sensor_type;location;lat;lon;timestamp;pressure;altitude;pressure_sealevel;temperature;humidity
55301;BME280;58302;51.446;-2.000;2022-09-13T00:00:30;100233.25;;;16.97;87.41
55301;BME280;58302;51.446;-2.000;2022-09-13T00:02:56;100230.28;;;16.85;88.00
55301;BME280;58302;51.446;-2.000;2022-09-13T00:05:22;100233.78;;;16.77;89.11
55301;BME280;58302;51.446;-2.000;2022-09-13T00:07:49;100233.34;;;16.70;90.02
55301;BME280;58302;51.446;-2.000;2022-09-13T00:10:15;100230.25;;;16.63;89.98
55301;BME280;58302;51.446;-2.000;2022-09-13T00:12:41;100234.41;;;16.74;91.13
55301;BME280;58302;51.446;-2.000;2022-09-13T00:15:08;100223.38;;;16.88;90.03
55301;BME280;58302;51.446;-2.000;2022-09-13T00:17:34;100225.31;;;16.87;89.71
55301;BME280;58302;51.446;-2.000;2022-09-13T00:20:00;100225.19;;;16.92;90.14
55301;BME280;58302;51.446;-2.000;2022-09-13T00:22:27;100224.03;;;16.93;89.79
55301;BME280;58302;51.446;-2.000;2022-09-13T00:24:53;100217.44;;;16.94;89.70
55301;BME280;58302;51.446;-2.000;2022-09-13T00:27:19;100206.78;;;16.93;90.31
55301;BME280;58302;51.446;-2.000;2022-09-13T00:29:45;100211.44;;;16.92;90.16
55301;BME280;58302;51.446;-2.000;2022-09-13T00:32:11;100208.72;;;16.92;90.71
55301;BME280;58302;51.446;-2.000;2022-09-13T00:34:37;100200.47;;;16.92;91.94
55301;BME280;58302;51.446;-2.000;2022-09-13T00:37:03;100206.78;;;16.93;93.17
55301;BME280;58302;51.446;-2.000;2022-09-13T00:39:29;100201.09;;;16.89;94.23
55301;BME280;58302;51.446;-2.000;2022-09-13T00:41:55;100208.72;;;16.92;95.22
55301;BME280;58302;51.446;-2.000;2022-09-13T00:45:02;100205.31;;;16.95;96.53
55301;BME280;58302;51.446;-2.000;2022-09-13T00:50:13;100216.31;;;16.95;99.73
55301;BME280;58302;51.446;-2.000;2022-09-13T00:52:44;100204.38;;;17.00;100.00
55301;BME280;58302;51.446;-2.000;2022-09-13T00:55:28;100193.06;;;17.01;100.00
55301;BME280;58302;51.446;-2.000;2022-09-13T00:57:59;100194.53;;;16.99;100.00
55301;BME280;58302;51.446;-2.000;2022-09-13T01:00:27;100195.47;;;16.94;100.00
55301;BME280;58302;51.446;-2.000;2022-09-13T01:03:00;100204.03;;;16.93;100.00
55301;BME280;58302;51.446;-2.000;2022-09-13T01:05:31;100200.28;;;16.89;100.00
55301;BME280;58302;51.446;-2.000;2022-09-13T01:07:58;100202.50;;;16.86;100.00
55301;BME280;58302;51.446;-2.000;2022-09-13T01:10:26;100199.75;;;16.86;100.00
55301;BME280;58302;51.446;-2.000;2022-09-13T01:13:08;100194.97;;;16.92;100.00
55301;BME280;58302;51.446;-2.000;2022-09-13T01:15:40;100191.59;;;16.95;100.00
55301;BME280;58302;51.446;-2.000;2022-09-13T01:18:07;100191.28;;;16.97;100.00
55301;BME280;58302;51.446;-2.000;2022-09-13T01:37:52;100196.06;;;17.53;100.00
55301;BME280;58302;51.446;-2.000;2022-09-13T01:40:49;100194.63;;;17.56;100.00
55301;BME280;58302;51.446;-2.000;2022-09-13T01:43:54;100192.19;;;17.54;100.00
55301;BME280;58302;51.446;-2.000;2022-09-13T01:46:35;100191.53;;;17.57;100.00
55301;BME280;58302;51.446;-2.000;2022-09-13T01:52:06;100186.03;;;17.57;100.00
55301;BME280;58302;51.446;-2.000;2022-09-13T01:54:42;100186.84;;;17.58;100.00
55301;BME280;58302;51.446;-2.000;2022-09-13T01:57:16;100193.66;;;17.60;100.00
55301;BME280;58302;51.446;-2.000;2022-09-13T02:02:20;100188.66;;;17.62;100.00
55301;BME280;58302;51.446;-2.000;2022-09-13T02:04:55;100190.91;;;17.60;100.00
55301;BME280;58302;51.446;-2.000;2022-09-13T02:07:29;100188.31;;;17.55;100.00
55301;BME280;58302;51.446;-2.000;2022-09-13T02:10:02;100183.78;;;17.51;100.00
55301;BME280;58302;51.446;-2.000;2022-09-13T02:12:33;100182.78;;;17.47;100.00
55301;BME280;58302;51.446;-2.000;2022-09-13T02:15:11;100187.59;;;17.41;100.00
55301;BME280;58302;51.446;-2.000;2022-09-13T02:17:48;100188.41;;;17.33;100.00
55301;BME280;58302;51.446;-2.000;2022-09-13T02:20:27;100188.84;;;17.26;100.00
55301;BME280;58302;51.446;-2.000;2022-09-13T02:22:58;100201.25;;;17.24;100.00
55301;BME280;58302;51.446;-2.000;2022-09-13T02:25:27;100197.03;;;17.18;100.00
55301;BME280;58302;51.446;-2.000;2022-09-13T02:27:59;100194.09;;;17.14;100.00
55301;BME280;58302;51.446;-2.000;2022-09-13T02:30:30;100201.84;;;17.12;100.00
55301;BME280;58302;51.446;-2.000;2022-09-13T02:33:29;100189.72;;;17.04;100.00
55301;BME280;58302;51.446;-2.000;2022-09-13T02:36:11;100189.72;;;17.04;100.00
55301;BME280;58302;51.446;-2.000;2022-09-13T02:41:22;100195.34;;;16.99;100.00
55301;BME280;58302;51.446;-2.000;2022-09-13T02:44:14;100203.06;;;16.97;100.00
55301;BME280;58302;51.446;-2.000;2022-09-13T02:49:41;100210.50;;;16.97;100.00
55301;BME280;58302;51.446;-2.000;2022-09-13T02:52:41;100211.28;;;16.97;100.00
55301;BME280;58302;51.446;-2.000;2022-09-13T02:58:14;100219.38;;;16.94;100.00
55301;BME280;58302;51.446;-2.000;2022-09-13T03:00:44;100226.59;;;16.90;100.00
55301;BME280;58302;51.446;-2.000;2022-09-13T03:03:14;100224.16;;;16.88;100.00
55301;BME280;58302;51.446;-2.000;2022-09-13T03:05:41;100233.94;;;16.80;100.00
55301;BME280;58302;51.446;-2.000;2022-09-13T03:08:09;100237.03;;;16.79;100.00
55301;BME280;58302;51.446;-2.000;2022-09-13T03:18:50;100247.19;;;16.65;100.00
55301;BME280;58302;51.446;-2.000;2022-09-13T03:24:18;100253.63;;;16.60;100.00
55301;BME280;58302;51.446;-2.000;2022-09-13T03:26:55;100247.63;;;16.58;100.00
55301;BME280;58302;51.446;-2.000;2022-09-13T03:29:31;100258.44;;;16.54;100.00
55301;BME280;58302;51.446;-2.000;2022-09-13T03:32:19;100267.28;;;16.51;98.40
55301;BME280;58302;51.446;-2.000;2022-09-13T03:35:03;100257.53;;;16.45;97.60
55301;BME280;58302;51.446;-2.000;2022-09-13T03:38:00;100260.13;;;16.28;97.28
55301;BME280;58302;51.446;-2.000;2022-09-13T03:40:34;100266.25;;;16.11;96.01
55301;BME280;58302;51.446;-2.000;2022-09-13T03:45:52;100280.25;;;15.82;94.37
55301;BME280;58302;51.446;-2.000;2022-09-13T03:48:20;100284.31;;;15.71;94.34
55301;BME280;58302;51.446;-2.000;2022-09-13T03:50:47;100288.13;;;15.56;95.16
55301;BME280;58302;51.446;-2.000;2022-09-13T03:53:19;100296.84;;;15.44;95.56
55301;BME280;58302;51.446;-2.000;2022-09-13T03:55:48;100297.84;;;15.35;96.12
55301;BME280;58302;51.446;-2.000;2022-09-13T03:58:16;100299.94;;;15.24;95.36
55301;BME280;58302;51.446;-2.000;2022-09-13T04:00:42;100306.06;;;15.16;94.23
55301;BME280;58302;51.446;-2.000;2022-09-13T04:03:12;100296.13;;;15.06;92.22
55301;BME280;58302;51.446;-2.000;2022-09-13T04:05:38;100289.94;;;15.00;92.58
55301;BME280;58302;51.446;-2.000;2022-09-13T04:08:05;100290.28;;;14.94;91.80
55301;BME280;58302;51.446;-2.000;2022-09-13T04:10:33;100285.19;;;14.87;91.53
55301;BME280;58302;51.446;-2.000;2022-09-13T04:13:00;100287.50;;;14.80;91.59
55301;BME280;58302;51.446;-2.000;2022-09-13T04:15:28;100291.44;;;14.74;91.25
55301;BME280;58302;51.446;-2.000;2022-09-13T04:17:56;100292.91;;;14.66;90.97
55301;BME280;58302;51.446;-2.000;2022-09-13T04:20:22;100299.28;;;14.62;89.32
55301;BME280;58302;51.446;-2.000;2022-09-13T04:22:54;100307.25;;;14.58;87.13
55301;BME280;58302;51.446;-2.000;2022-09-13T04:25:21;100297.19;;;14.54;85.86
55301;BME280;58302;51.446;-2.000;2022-09-13T04:27:48;100291.50;;;14.50;84.85
55301;BME280;58302;51.446;-2.000;2022-09-13T04:30:18;100294.56;;;14.43;83.54
55301;BME280;58302;51.446;-2.000;2022-09-13T04:32:44;100298.72;;;14.41;83.38
55301;BME280;58302;51.446;-2.000;2022-09-13T04:35:10;100312.16;;;14.37;83.34
55301;BME280;58302;51.446;-2.000;2022-09-13T04:37:37;100309.47;;;14.32;83.36
55301;BME280;58302;51.446;-2.000;2022-09-13T04:40:05;100306.25;;;14.30;84.05
55301;BME280;58302;51.446;-2.000;2022-09-13T04:42:32;100312.59;;;14.26;84.67
55301;BME280;58302;51.446;-2.000;2022-09-13T04:44:58;100315.09;;;14.22;84.28
55301;BME280;58302;51.446;-2.000;2022-09-13T04:47:24;100311.84;;;14.20;85.05
55301;BME280;58302;51.446;-2.000;2022-09-13T04:49:50;100299.34;;;14.14;85.34
55301;BME280;58302;51.446;-2.000;2022-09-13T04:52:16;100302.13;;;14.09;85.71
55301;BME280;58302;51.446;-2.000;2022-09-13T04:54:42;100304.63;;;14.05;86.21
55301;BME280;58302;51.446;-2.000;2022-09-13T04:57:08;100298.94;;;14.02;86.76
55301;BME280;58302;51.446;-2.000;2022-09-13T04:59:34;100298.19;;;13.96;87.42
55301;BME280;58302;51.446;-2.000;2022-09-13T05:02:00;100291.09;;;13.95;87.53
55301;BME280;58302;51.446;-2.000;2022-09-13T05:04:26;100293.06;;;13.89;87.52
55301;BME280;58302;51.446;-2.000;2022-09-13T05:06:52;100299.59;;;13.93;87.49
55301;BME280;58302;51.446;-2.000;2022-09-13T05:09:18;100297.66;;;13.94;87.69
55301;BME280;58302;51.446;-2.000;2022-09-13T05:11:44;100288.66;;;13.93;87.54
55301;BME280;58302;51.446;-2.000;2022-09-13T05:14:10;100286.47;;;13.95;87.52
55301;BME280;58302;51.446;-2.000;2022-09-13T05:16:36;100283.72;;;13.95;87.35
55301;BME280;58302;51.446;-2.000;2022-09-13T05:19:02;100285.63;;;13.95;87.74
55301;BME280;58302;51.446;-2.000;2022-09-13T05:21:29;100290.81;;;13.96;87.41
55301;BME280;58302;51.446;-2.000;2022-09-13T05:23:56;100288.09;;;13.96;88.28
55301;BME280;58302;51.446;-2.000;2022-09-13T05:26:24;100288.09;;;13.96;87.15
55301;BME280;58302;51.446;-2.000;2022-09-13T05:28:51;100286.16;;;13.97;87.17
55301;BME280;58302;51.446;-2.000;2022-09-13T05:31:22;100287.28;;;13.96;86.66
55301;BME280;58302;51.446;-2.000;2022-09-13T05:33:55;100285.34;;;13.96;86.64
55301;BME280;58302;51.446;-2.000;2022-09-13T05:36:21;100288.91;;;13.97;86.57
55301;BME280;58302;51.446;-2.000;2022-09-13T05:38:47;100285.56;;;14.00;86.71
55301;BME280;58302;51.446;-2.000;2022-09-13T05:41:13;100282.84;;;14.00;86.59
55301;BME280;58302;51.446;-2.000;2022-09-13T05:43:39;100285.56;;;14.00;86.77
55301;BME280;58302;51.446;-2.000;2022-09-13T05:46:16;100280.09;;;14.00;86.72
55301;BME280;58302;51.446;-2.000;2022-09-13T05:48:44;100291.84;;;14.01;86.87
55301;BME280;58302;51.446;-2.000;2022-09-13T05:51:12;100289.41;;;13.99;86.81
55301;BME280;58302;51.446;-2.000;2022-09-13T05:53:40;100279.81;;;14.02;86.61
55301;BME280;58302;51.446;-2.000;2022-09-13T05:56:07;100276.28;;;14.01;86.95
55301;BME280;58302;51.446;-2.000;2022-09-13T05:58:37;100270.59;;;13.97;87.01
55301;BME280;58302;51.446;-2.000;2022-09-13T06:01:03;100268.66;;;13.98;87.07
55301;BME280;58302;51.446;-2.000;2022-09-13T06:03:29;100279.59;;;13.98;87.14
55301;BME280;58302;51.446;-2.000;2022-09-13T06:05:56;100273.81;;;14.00;86.85
55301;BME280;58302;51.446;-2.000;2022-09-13T06:08:24;100273.63;;;13.96;87.08
55301;BME280;58302;51.446;-2.000;2022-09-13T06:11:08;100268.34;;;14.00;86.68
55301;BME280;58302;51.446;-2.000;2022-09-13T06:13:35;100273.56;;;14.01;86.68
55301;BME280;58302;51.446;-2.000;2022-09-13T06:16:02;100272.19;;;13.98;86.69
55301;BME280;58302;51.446;-2.000;2022-09-13T06:18:28;100269.41;;;14.04;86.58
55301;BME280;58302;51.446;-2.000;2022-09-13T06:21:03;100269.41;;;14.04;86.27
55301;BME280;58302;51.446;-2.000;2022-09-13T06:23:30;100275.69;;;14.04;86.06
55301;BME280;58302;51.446;-2.000;2022-09-13T06:26:03;100281.66;;;14.06;85.88
55301;BME280;58302;51.446;-2.000;2022-09-13T06:28:29;100286.84;;;14.08;85.78
55301;BME280;58302;51.446;-2.000;2022-09-13T06:31:15;100288.72;;;14.12;85.79
55301;BME280;58302;51.446;-2.000;2022-09-13T06:33:42;100285.38;;;14.15;85.49
55301;BME280;58302;51.446;-2.000;2022-09-13T06:36:16;100278.28;;;14.14;85.05
55301;BME280;58302;51.446;-2.000;2022-09-13T06:38:46;100279.34;;;14.18;84.61
55301;BME280;58302;51.446;-2.000;2022-09-13T06:41:16;100277.41;;;14.19;84.90
55301;BME280;58302;51.446;-2.000;2022-09-13T06:43:43;100268.34;;;14.23;84.52
55301;BME280;58302;51.446;-2.000;2022-09-13T06:46:12;100275.94;;;14.27;84.19
55301;BME280;58302;51.446;-2.000;2022-09-13T06:48:40;100270.53;;;14.21;83.91
55301;BME280;58302;51.446;-2.000;2022-09-13T06:51:15;100263.75;;;14.19;84.10
55301;BME280;58302;51.446;-2.000;2022-09-13T06:53:43;100270.25;;;14.23;84.11
55301;BME280;58302;51.446;-2.000;2022-09-13T06:56:14;100263.63;;;14.29;83.69
55301;BME280;58302;51.446;-2.000;2022-09-13T06:58:42;100261.91;;;14.33;83.90
55301;BME280;58302;51.446;-2.000;2022-09-13T07:01:17;100264.88;;;14.37;82.82
55301;BME280;58302;51.446;-2.000;2022-09-13T07:03:46;100268.41;;;14.37;82.75
55301;BME280;58302;51.446;-2.000;2022-09-13T07:06:17;100271.66;;;14.39;82.80
55301;BME280;58302;51.446;-2.000;2022-09-13T07:08:45;100268.84;;;14.44;82.20
55301;BME280;58302;51.446;-2.000;2022-09-13T07:11:13;100263.69;;;14.43;82.19
55301;BME280;58302;51.446;-2.000;2022-09-13T07:13:39;100260.72;;;14.39;82.32
55301;BME280;58302;51.446;-2.000;2022-09-13T07:16:10;100269.44;;;14.41;82.55
55301;BME280;58302;51.446;-2.000;2022-09-13T07:18:37;100266.66;;;14.46;81.98
55301;BME280;58302;51.446;-2.000;2022-09-13T07:21:08;100251.63;;;14.44;81.66
55301;BME280;58302;51.446;-2.000;2022-09-13T07:23:36;100247.75;;;14.50;81.61
55301;BME280;58302;51.446;-2.000;2022-09-13T07:26:03;100245.22;;;14.54;81.70
55301;BME280;58302;51.446;-2.000;2022-09-13T07:28:41;100247.47;;;14.52;81.56
55301;BME280;58302;51.446;-2.000;2022-09-13T07:33:33;100235.34;;;14.58;80.79
55301;BME280;58302;51.446;-2.000;2022-09-13T07:36:00;100243.75;;;14.61;80.44
55301;BME280;58302;51.446;-2.000;2022-09-13T07:38:28;100240.94;;;14.66;80.22
55301;BME280;58302;51.446;-2.000;2022-09-13T07:40:57;100249.59;;;14.73;80.34
55301;BME280;58302;51.446;-2.000;2022-09-13T07:43:25;100243.81;;;14.75;79.58
55301;BME280;58302;51.446;-2.000;2022-09-13T07:45:58;100248.09;;;14.81;79.77
55301;BME280;58302;51.446;-2.000;2022-09-13T07:48:26;100242.03;;;14.84;79.60
55301;BME280;58302;51.446;-2.000;2022-09-13T07:50:57;100250.09;;;14.94;79.08
55301;BME280;58302;51.446;-2.000;2022-09-13T07:53:24;100247.16;;;15.05;79.06
55301;BME280;58302;51.446;-2.000;2022-09-13T07:55:51;100250.75;;;15.19;78.40
55301;BME280;58302;51.446;-2.000;2022-09-13T07:58:17;100249.84;;;15.23;78.34
55301;BME280;58302;51.446;-2.000;2022-09-13T08:00:43;100239.00;;;15.32;77.51
55301;BME280;58302;51.446;-2.000;2022-09-13T08:03:10;100243.28;;;15.52;77.25
55301;BME280;58302;51.446;-2.000;2022-09-13T08:05:42;100246.25;;;15.55;76.94
55301;BME280;58302;51.446;-2.000;2022-09-13T08:08:08;100243.09;;;15.62;76.67
55301;BME280;58302;51.446;-2.000;2022-09-13T08:10:34;100237.81;;;15.52;77.05
55301;BME280;58302;51.446;-2.000;2022-09-13T08:13:00;100241.34;;;15.52;77.50
55301;BME280;58302;51.446;-2.000;2022-09-13T08:15:27;100246.34;;;15.64;77.59
55301;BME280;58302;51.446;-2.000;2022-09-13T08:17:53;100247.78;;;15.89;76.75
55301;BME280;58302;51.446;-2.000;2022-09-13T08:20:19;100252.34;;;16.07;75.87
55301;BME280;58302;51.446;-2.000;2022-09-13T08:22:45;100242.34;;;16.25;75.03
55301;BME280;58302;51.446;-2.000;2022-09-13T08:25:11;100245.66;;;16.36;74.50
55301;BME280;58302;51.446;-2.000;2022-09-13T08:27:37;100247.81;;;16.39;73.86
55301;BME280;58302;51.446;-2.000;2022-09-13T08:30:03;100257.28;;;16.33;74.44
55301;BME280;58302;51.446;-2.000;2022-09-13T08:32:30;100256.56;;;16.27;74.63
55301;BME280;58302;51.446;-2.000;2022-09-13T08:34:56;100258.41;;;16.18;74.70
55301;BME280;58302;51.446;-2.000;2022-09-13T08:37:22;100265.66;;;16.00;75.48
55301;BME280;58302;51.446;-2.000;2022-09-13T08:39:48;100268.06;;;16.02;75.49
55301;BME280;58302;51.446;-2.000;2022-09-13T08:44:58;100247.53;;;16.27;74.92
55301;BME280;58302;51.446;-2.000;2022-09-13T08:52:34;100256.59;;;15.86;76.40
55301;BME280;58302;51.446;-2.000;2022-09-13T08:55:22;100254.28;;;15.79;76.04
55301;BME280;58302;51.446;-2.000;2022-09-13T09:00:50;100262.97;;;15.54;77.54
55301;BME280;58302;51.446;-2.000;2022-09-13T09:05:51;100262.78;;;15.64;78.33
55301;BME280;58302;51.446;-2.000;2022-09-13T09:08:28;100274.38;;;15.75;78.23
55301;BME280;58302;51.446;-2.000;2022-09-13T09:11:01;100269.19;;;15.87;77.94
55301;BME280;58302;51.446;-2.000;2022-09-13T09:13:34;100265.47;;;15.83;78.65
55301;BME280;58302;51.446;-2.000;2022-09-13T09:18:51;100269.91;;;15.93;78.91
55301;BME280;58302;51.446;-2.000;2022-09-13T09:21:18;100266.25;;;15.97;76.83
55301;BME280;58302;51.446;-2.000;2022-09-13T09:26:23;100272.97;;;15.77;75.94
55301;BME280;58302;51.446;-2.000;2022-09-13T09:28:55;100280.06;;;15.92;77.23
55301;BME280;58302;51.446;-2.000;2022-09-13T09:31:28;100283.41;;;16.03;78.02
55301;BME280;58302;51.446;-2.000;2022-09-13T09:36:45;100286.25;;;16.12;79.21
55301;BME280;58302;51.446;-2.000;2022-09-13T09:39:14;100282.88;;;16.15;77.20
55301;BME280;58302;51.446;-2.000;2022-09-13T09:41:42;100287.56;;;16.00;77.56
55301;BME280;58302;51.446;-2.000;2022-09-13T09:44:20;100296.41;;;15.97;78.56
55301;BME280;58302;51.446;-2.000;2022-09-13T09:47:31;100291.63;;;16.03;76.88
55301;BME280;58302;51.446;-2.000;2022-09-13T09:50:13;100291.53;;;16.08;77.37
55301;BME280;58302;51.446;-2.000;2022-09-13T09:52:47;100298.13;;;16.07;78.91
55301;BME280;58302;51.446;-2.000;2022-09-13T09:55:36;100295.38;;;16.21;76.29
55301;BME280;58302;51.446;-2.000;2022-09-13T09:58:07;100306.91;;;16.45;74.91
55301;BME280;58302;51.446;-2.000;2022-09-13T10:00:49;100293.72;;;16.70;73.64
55301;BME280;58302;51.446;-2.000;2022-09-13T10:03:19;100291.56;;;16.94;72.75
55301;BME280;58302;51.446;-2.000;2022-09-13T10:05:46;100288.69;;;16.99;72.24
55301;BME280;58302;51.446;-2.000;2022-09-13T10:08:25;100287.91;;;16.85;73.48
55301;BME280;58302;51.446;-2.000;2022-09-13T10:10:55;100288.34;;;16.65;74.76
55301;BME280;58302;51.446;-2.000;2022-09-13T10:13:23;100287.88;;;16.63;75.08
55301;BME280;58302;51.446;-2.000;2022-09-13T10:16:00;100284.84;;;16.50;77.56
55301;BME280;58302;51.446;-2.000;2022-09-13T10:18:35;100285.94;;;16.27;77.80
55301;BME280;58302;51.446;-2.000;2022-09-13T10:21:05;100294.53;;;16.34;77.85
55301;BME280;58302;51.446;-2.000;2022-09-13T10:23:35;100280.03;;;16.33;77.04
55301;BME280;58302;51.446;-2.000;2022-09-13T10:26:05;100279.06;;;16.52;79.34
55301;BME280;58302;51.446;-2.000;2022-09-13T10:28:43;100285.59;;;16.65;76.14
55301;BME280;58302;51.446;-2.000;2022-09-13T10:31:13;100275.41;;;16.93;77.24
55301;BME280;58302;51.446;-2.000;2022-09-13T10:33:46;100273.81;;;17.00;74.29
55301;BME280;58302;51.446;-2.000;2022-09-13T10:36:25;100276.91;;;16.99;75.85
55301;BME280;58302;51.446;-2.000;2022-09-13T10:39:16;100283.31;;;16.94;73.23
55301;BME280;58302;51.446;-2.000;2022-09-13T10:42:03;100283.81;;;16.96;73.91
55301;BME280;58302;51.446;-2.000;2022-09-13T10:44:40;100280.81;;;17.06;74.18
55301;BME280;58302;51.446;-2.000;2022-09-13T10:47:47;100280.31;;;17.27;73.63
55301;BME280;58302;51.446;-2.000;2022-09-13T10:50:23;100285.94;;;17.22;71.16
55301;BME280;58302;51.446;-2.000;2022-09-13T10:52:51;100282.69;;;17.20;69.67
55301;BME280;58302;51.446;-2.000;2022-09-13T10:57:45;100283.13;;;16.91;72.75
55301;BME280;58302;51.446;-2.000;2022-09-13T11:00:15;100281.25;;;17.00;70.66
55301;BME280;58302;51.446;-2.000;2022-09-13T11:13:30;100274.50;;;17.06;70.43
55301;BME280;58302;51.446;-2.000;2022-09-13T11:19:05;100284.31;;;16.76;72.59
55301;BME280;58302;51.446;-2.000;2022-09-13T11:30:17;100289.38;;;16.19;77.97
55301;BME280;58302;51.446;-2.000;2022-09-13T11:35:48;100280.47;;;15.72;81.76
55301;BME280;58302;51.446;-2.000;2022-09-13T11:38:33;100290.22;;;15.78;83.35
55301;BME280;58302;51.446;-2.000;2022-09-13T11:44:02;100299.66;;;15.99;82.02
55301;BME280;58302;51.446;-2.000;2022-09-13T11:47:00;100298.22;;;16.02;83.77
55301;BME280;58302;51.446;-2.000;2022-09-13T11:52:40;100289.16;;;16.29;84.37
55301;BME280;58302;51.446;-2.000;2022-09-13T11:55:15;100296.16;;;16.35;83.32
55301;BME280;58302;51.446;-2.000;2022-09-13T11:57:47;100297.38;;;16.43;85.18
55301;BME280;58302;51.446;-2.000;2022-09-13T12:00:21;100286.84;;;16.58;85.75
55301;BME280;58302;51.446;-2.000;2022-09-13T12:05:23;100289.22;;;16.51;81.35
55301;BME280;58302;51.446;-2.000;2022-09-13T12:13:09;100283.03;;;16.46;81.82
55301;BME280;58302;51.446;-2.000;2022-09-13T12:15:43;100283.66;;;16.43;84.78
55301;BME280;58302;51.446;-2.000;2022-09-13T12:18:15;100293.09;;;16.37;85.64
55301;BME280;58302;51.446;-2.000;2022-09-13T12:20:50;100265.66;;;16.50;85.60
55301;BME280;58302;51.446;-2.000;2022-09-13T12:23:41;100277.53;;;16.59;83.28
55301;BME280;58302;51.446;-2.000;2022-09-13T12:26:16;100269.91;;;16.56;82.74
55301;BME280;58302;51.446;-2.000;2022-09-13T12:29:12;100275.00;;;16.49;84.46
55301;BME280;58302;51.446;-2.000;2022-09-13T12:31:40;100279.81;;;16.44;80.95
55301;BME280;58302;51.446;-2.000;2022-09-13T12:34:09;100273.88;;;16.50;81.32
55301;BME280;58302;51.446;-2.000;2022-09-13T13:08:01;100245.94;;;16.12;83.24
55301;BME280;58302;51.446;-2.000;2022-09-13T13:10:38;100244.03;;;15.99;84.25
55301;BME280;58302;51.446;-2.000;2022-09-13T13:13:20;100243.63;;;15.92;84.19
55301;BME280;58302;51.446;-2.000;2022-09-13T13:15:53;100241.31;;;15.71;85.89
55301;BME280;58302;51.446;-2.000;2022-09-13T13:21:21;100228.91;;;15.74;86.46
55301;BME280;58302;51.446;-2.000;2022-09-13T13:26:57;100234.41;;;15.74;89.11
55301;BME280;58302;51.446;-2.000;2022-09-13T13:29:24;100230.25;;;15.63;87.47
55301;BME280;58302;51.446;-2.000;2022-09-13T13:34:53;100224.50;;;15.59;88.15
55301;BME280;58302;51.446;-2.000;2022-09-13T13:37:30;100226.94;;;15.47;88.67
55301;BME280;58302;51.446;-2.000;2022-09-13T13:40:24;100236.78;;;15.48;91.50
55301;BME280;58302;51.446;-2.000;2022-09-13T13:45:58;100234.75;;;15.40;92.71
55301;BME280;58302;51.446;-2.000;2022-09-13T13:48:43;100234.94;;;15.43;92.15
55301;BME280;58302;51.446;-2.000;2022-09-13T13:51:18;100230.00;;;15.45;91.87
55301;BME280;58302;51.446;-2.000;2022-09-13T13:53:57;100232.22;;;15.43;92.31
55301;BME280;58302;51.446;-2.000;2022-09-13T13:56:29;100223.72;;;15.45;92.97
55301;BME280;58302;51.446;-2.000;2022-09-13T14:01:44;100229.38;;;15.48;95.72
55301;BME280;58302;51.446;-2.000;2022-09-13T14:04:46;100226.28;;;15.69;92.95
55301;BME280;58302;51.446;-2.000;2022-09-13T14:07:31;100222.94;;;15.72;92.73
55301;BME280;58302;51.446;-2.000;2022-09-13T14:18:09;100223.00;;;15.80;91.85
55301;BME280;58302;51.446;-2.000;2022-09-13T14:20:56;100220.91;;;15.77;93.04
55301;BME280;58302;51.446;-2.000;2022-09-13T14:23:22;100207.97;;;15.92;93.06
55301;BME280;58302;51.446;-2.000;2022-09-13T14:25:58;100214.91;;;15.89;93.48
55301;BME280;58302;51.446;-2.000;2022-09-13T14:28:25;100221.41;;;15.93;93.21
55301;BME280;58302;51.446;-2.000;2022-09-13T14:30:54;100212.69;;;15.77;92.06
55301;BME280;58302;51.446;-2.000;2022-09-13T14:33:29;100208.13;;;15.73;94.06
55301;BME280;58302;51.446;-2.000;2022-09-13T14:35:59;100204.75;;;15.76;95.28
55301;BME280;58302;51.446;-2.000;2022-09-13T14:38:29;100211.28;;;15.66;92.36
55301;BME280;58302;51.446;-2.000;2022-09-13T14:41:15;100201.41;;;15.65;95.19
55301;BME280;58302;51.446;-2.000;2022-09-13T14:43:43;100201.03;;;15.72;96.62
55301;BME280;58302;51.446;-2.000;2022-09-13T14:48:51;100189.44;;;15.89;93.30
55301;BME280;58302;51.446;-2.000;2022-09-13T14:51:27;100189.31;;;15.94;94.42
55301;BME280;58302;51.446;-2.000;2022-09-13T14:54:16;100185.94;;;15.97;92.43
55301;BME280;58302;51.446;-2.000;2022-09-13T14:56:51;100187.28;;;15.99;93.75
55301;BME280;58302;51.446;-2.000;2022-09-13T14:59:31;100189.28;;;16.07;91.40
55301;BME280;58302;51.446;-2.000;2022-09-13T15:02:20;100182.50;;;16.05;92.33
55301;BME280;58302;51.446;-2.000;2022-09-13T15:04:51;100183.91;;;16.02;89.56
55301;BME280;58302;51.446;-2.000;2022-09-13T15:07:22;100188.56;;;16.02;90.20
55301;BME280;58302;51.446;-2.000;2022-09-13T15:09:55;100185.41;;;16.08;89.70
55301;BME280;58302;51.446;-2.000;2022-09-13T15:12:25;100181.53;;;16.10;90.83
55301;BME280;58302;51.446;-2.000;2022-09-13T15:15:24;100187.22;;;16.13;92.30
55301;BME280;58302;51.446;-2.000;2022-09-13T15:23:16;100171.81;;;16.03;88.83
55301;BME280;58302;51.446;-2.000;2022-09-13T15:26:21;100169.50;;;15.97;88.05
55301;BME280;58302;51.446;-2.000;2022-09-13T15:28:56;100165.25;;;15.91;90.68
55301;BME280;58302;51.446;-2.000;2022-09-13T15:31:28;100177.22;;;15.95;91.05
55301;BME280;58302;51.446;-2.000;2022-09-13T15:34:19;100166.44;;;15.98;91.06
55301;BME280;58302;51.446;-2.000;2022-09-13T15:39:26;100160.09;;;15.89;91.36
55301;BME280;58302;51.446;-2.000;2022-09-13T15:44:20;100159.50;;;15.78;92.89
55301;BME280;58302;51.446;-2.000;2022-09-13T15:46:54;100162.84;;;15.75;92.16
55301;BME280;58302;51.446;-2.000;2022-09-13T15:49:23;100156.16;;;15.68;92.95
55301;BME280;58302;51.446;-2.000;2022-09-13T15:52:02;100152.63;;;15.67;93.59
55301;BME280;58302;51.446;-2.000;2022-09-13T15:56:58;100143.88;;;15.65;92.34
55301;BME280;58302;51.446;-2.000;2022-09-13T15:59:25;100140.81;;;15.53;92.96
55301;BME280;58302;51.446;-2.000;2022-09-13T16:01:52;100148.34;;;15.47;93.67
55301;BME280;58302;51.446;-2.000;2022-09-13T16:04:18;100149.06;;;15.39;93.17
55301;BME280;58302;51.446;-2.000;2022-09-13T16:06:45;100137.09;;;15.35;93.25